createdAt,value
2023-02-09T00:01:56.379Z,17.13
2023-02-09T00:04:42.292Z,17.33
2023-02-09T00:07:27.665Z,18.37
2023-02-09T00:10:13.373Z,17.67
2023-02-09T00:13:17.280Z,19.10
2023-02-09T00:16:03.641Z,17.50
2023-02-09T00:18:49.149Z,17.03
2023-02-09T00:21:34.897Z,18.63
2023-02-09T00:24:20.113Z,17.50
2023-02-09T00:27:05.541Z,18.37
2023-02-09T00:29:51.206Z,17.50
2023-02-09T00:32:36.762Z,17.60
2023-02-09T00:35:22.242Z,19.70
2023-02-09T00:38:08.022Z,17.53
2023-02-09T00:40:53.822Z,18.93
2023-02-09T00:43:40.007Z,18.63
2023-02-09T00:46:25.173Z,18.57
2023-02-09T00:49:10.699Z,19.57
2023-02-09T00:51:56.432Z,18.70
2023-02-09T00:54:41.787Z,19.67
2023-02-09T00:57:27.376Z,17.30
2023-02-09T01:00:14.428Z,18.77
2023-02-09T01:02:59.895Z,19.33
2023-02-09T01:05:45.219Z,18.77
2023-02-09T01:08:30.744Z,18.27
2023-02-09T01:11:16.670Z,18.47
2023-02-09T01:14:04.440Z,17.83
2023-02-09T01:16:49.780Z,17.63
2023-02-09T01:19:36.044Z,17.37
2023-02-09T01:22:21.353Z,17.63
2023-02-09T01:25:08.089Z,19.87
2023-02-09T01:27:53.679Z,18.87
2023-02-09T01:30:39.427Z,18.90
2023-02-09T01:33:24.929Z,18.03
2023-02-09T01:36:10.831Z,19.20
2023-02-09T01:38:58.611Z,18.60
2023-02-09T01:41:44.124Z,19.17
2023-02-09T01:44:29.330Z,19.60
2023-02-09T01:47:16.666Z,18.53
2023-02-09T01:50:03.272Z,17.83
2023-02-09T01:52:49.283Z,19.47
2023-02-09T01:55:39.135Z,18.67
2023-02-09T01:58:26.183Z,19.27
2023-02-09T02:01:12.220Z,20.53
2023-02-09T02:03:57.684Z,19.40
2023-02-09T02:06:43.048Z,19.40
2023-02-09T02:09:29.413Z,19.43
2023-02-09T02:12:15.508Z,19.20
2023-02-09T02:15:01.076Z,20.40
2023-02-09T02:18:10.129Z,18.77
2023-02-09T02:21:18.455Z,18.73
2023-02-09T02:24:12.691Z,20.13
2023-02-09T02:27:22.773Z,18.90
2023-02-09T02:30:36.052Z,19.53
2023-02-09T02:33:41.352Z,21.20
2023-02-09T02:36:46.755Z,19.60
2023-02-09T02:40:19.010Z,19.73
2023-02-09T02:43:49.744Z,19.07
2023-02-09T02:46:46.249Z,19.13
2023-02-09T02:49:39.721Z,17.87
2023-02-09T02:52:25.313Z,19.77
2023-02-09T02:55:15.583Z,17.37
2023-02-09T02:58:06.259Z,18.87
2023-02-09T03:00:57.325Z,19.20
2023-02-09T03:03:44.890Z,19.33
2023-02-09T03:06:32.906Z,19.77
2023-02-09T03:09:18.772Z,19.20
2023-02-09T03:12:25.635Z,19.10
2023-02-09T03:15:28.202Z,19.17
2023-02-09T03:18:51.100Z,19.27
2023-02-09T03:21:43.676Z,18.60
2023-02-09T03:24:52.310Z,18.87
2023-02-09T03:28:07.592Z,17.83
2023-02-09T03:33:39.952Z,18.87
2023-02-09T03:36:31.479Z,19.50
2023-02-09T03:39:16.760Z,18.77
2023-02-09T03:42:02.405Z,18.30
2023-02-09T03:44:47.785Z,18.77
2023-02-09T03:47:33.210Z,17.53
2023-02-09T03:50:18.765Z,17.83
2023-02-09T03:53:07.605Z,18.80
2023-02-09T03:55:52.791Z,19.87
2023-02-09T03:58:38.311Z,18.60
2023-02-09T04:01:23.934Z,19.30
2023-02-09T04:04:09.353Z,18.03
2023-02-09T04:06:56.129Z,18.30
2023-02-09T04:09:41.710Z,19.17
2023-02-09T04:12:27.314Z,18.87
2023-02-09T04:15:12.903Z,16.53
2023-02-09T04:17:58.377Z,17.87
2023-02-09T04:20:44.413Z,18.30
2023-02-09T04:23:29.975Z,20.20
2023-02-09T04:26:15.732Z,18.57
2023-02-09T04:29:01.233Z,18.43
2023-02-09T04:31:46.900Z,17.80
2023-02-09T04:34:32.285Z,18.60
2023-02-09T04:37:17.616Z,17.27
2023-02-09T04:40:03.233Z,18.33
2023-02-09T04:42:48.524Z,19.30
2023-02-09T04:45:34.115Z,16.93
2023-02-09T04:48:21.768Z,16.80
2023-02-09T04:51:07.145Z,19.07
2023-02-09T04:53:52.646Z,17.37
2023-02-09T04:56:38.882Z,18.23
2023-02-09T04:59:36.558Z,18.07
2023-02-09T05:02:22.071Z,17.87
2023-02-09T05:05:07.405Z,18.87
2023-02-09T05:07:52.713Z,17.93
2023-02-09T05:10:38.482Z,18.50
2023-02-09T05:13:25.306Z,19.07
2023-02-09T05:16:14.994Z,19.83
2023-02-09T05:19:00.570Z,19.23
2023-02-09T05:21:46.301Z,18.13
2023-02-09T05:24:31.867Z,16.10
2023-02-09T05:27:17.444Z,17.20
2023-02-09T05:30:03.100Z,18.57
2023-02-09T05:32:48.542Z,17.10
2023-02-09T05:35:34.014Z,17.43
2023-02-09T05:38:19.700Z,17.90
2023-02-09T05:41:11.299Z,16.73
2023-02-09T05:43:56.839Z,18.17
2023-02-09T05:46:42.392Z,18.10
2023-02-09T05:49:27.895Z,18.97
2023-02-09T05:52:14.256Z,18.30
2023-02-09T05:54:59.620Z,16.83
2023-02-09T05:57:45.202Z,17.70
2023-02-09T06:00:30.720Z,17.67
2023-02-09T06:03:16.163Z,17.30
2023-02-09T06:06:01.481Z,17.77
2023-02-09T06:08:46.919Z,17.77
2023-02-09T06:11:32.521Z,16.50
2023-02-09T06:14:17.853Z,17.87
2023-02-09T06:17:03.496Z,16.60
2023-02-09T06:19:48.972Z,17.17
2023-02-09T06:22:34.420Z,15.73
2023-02-09T06:25:19.767Z,16.50
2023-02-09T06:28:05.509Z,17.33
2023-02-09T06:30:52.710Z,16.03
2023-02-09T06:33:39.271Z,16.23
2023-02-09T06:36:24.905Z,17.10
2023-02-09T06:39:11.186Z,16.43
2023-02-09T06:41:56.573Z,15.60
2023-02-09T06:44:41.805Z,14.90
2023-02-09T06:47:27.273Z,16.57
2023-02-09T06:50:15.295Z,15.33
2023-02-09T06:53:01.687Z,15.37
2023-02-09T06:55:46.939Z,15.47
2023-02-09T06:58:33.017Z,14.87
2023-02-09T07:01:18.465Z,16.50
2023-02-09T07:04:04.014Z,15.63
2023-02-09T07:06:49.684Z,16.43
2023-02-09T07:09:34.932Z,16.83
2023-02-09T07:12:20.366Z,15.37
2023-02-09T07:15:07.053Z,15.67
2023-02-09T07:17:52.738Z,16.17
2023-02-09T07:20:38.277Z,15.97
2023-02-09T07:23:24.465Z,17.10
2023-02-09T07:26:15.645Z,16.00
2023-02-09T07:29:01.479Z,16.37
2023-02-09T07:31:47.329Z,15.80
2023-02-09T07:34:34.701Z,15.53
2023-02-09T07:37:20.300Z,17.77
2023-02-09T07:40:06.506Z,15.53
2023-02-09T07:42:52.657Z,16.33
2023-02-09T07:45:37.740Z,15.77
2023-02-09T07:48:25.449Z,16.13
2023-02-09T07:51:15.451Z,16.57
2023-02-09T07:54:00.804Z,15.83
2023-02-09T07:56:46.072Z,15.97
2023-02-09T07:59:31.659Z,16.37
2023-02-09T08:02:28.201Z,15.80
2023-02-09T08:05:37.164Z,17.37
2023-02-09T08:08:22.772Z,16.97
2023-02-09T08:11:08.128Z,16.07
2023-02-09T08:13:55.670Z,16.13
2023-02-09T08:16:41.575Z,15.47
2023-02-09T08:19:26.831Z,15.50
2023-02-09T08:22:12.608Z,16.33
2023-02-09T08:24:59.269Z,14.97
2023-02-09T08:27:46.128Z,13.47
2023-02-09T08:30:33.100Z,14.13
2023-02-09T08:33:18.898Z,15.80
2023-02-09T08:36:04.586Z,15.33
2023-02-09T08:38:49.925Z,15.50
2023-02-09T08:41:35.446Z,14.60
2023-02-09T08:44:20.839Z,16.63
2023-02-09T08:47:06.233Z,14.47
2023-02-09T08:49:52.011Z,14.93
2023-02-09T08:52:37.974Z,14.67
2023-02-09T08:55:24.220Z,14.67
2023-02-09T08:58:09.675Z,15.47
2023-02-09T09:01:00.031Z,14.73
2023-02-09T09:03:45.507Z,14.23
2023-02-09T09:06:30.719Z,14.53
2023-02-09T09:09:16.232Z,13.87
2023-02-09T09:12:01.826Z,13.67
2023-02-09T09:14:47.481Z,14.47
2023-02-09T09:17:33.038Z,13.23
2023-02-09T09:20:18.964Z,15.00
2023-02-09T09:23:04.220Z,13.70
2023-02-09T09:25:50.323Z,14.20
2023-02-09T09:28:36.293Z,14.10
2023-02-09T09:31:22.071Z,15.70
2023-02-09T09:34:07.809Z,14.93
2023-02-09T09:36:53.285Z,14.90
2023-02-09T09:39:38.747Z,14.27
2023-02-09T09:42:25.550Z,13.17
2023-02-09T09:45:19.172Z,12.97
2023-02-09T09:48:06.024Z,13.67
2023-02-09T09:50:54.179Z,12.20
2023-02-09T09:53:43.461Z,13.87
2023-02-09T09:56:31.833Z,13.37
2023-02-09T09:59:32.374Z,12.23
2023-02-09T10:02:28.801Z,11.30
2023-02-09T10:05:17.007Z,10.77
2023-02-09T10:08:15.019Z,10.93
2023-02-09T10:11:08.931Z,11.20
2023-02-09T10:13:56.690Z,10.68
2023-02-09T10:16:44.572Z,11.17
2023-02-09T10:19:30.470Z,11.30
2023-02-09T10:22:20.777Z,11.80
2023-02-09T10:25:52.397Z,11.90
2023-02-09T10:28:44.154Z,12.23
2023-02-09T10:31:38.444Z,12.83
2023-02-09T10:34:45.359Z,13.02
2023-02-09T10:37:34.295Z,12.40
2023-02-09T10:40:38.608Z,13.40
2023-02-09T10:43:28.339Z,12.07
2023-02-09T10:46:20.843Z,13.90
2023-02-09T10:49:35.287Z,14.37
2023-02-09T10:52:23.136Z,14.23
2023-02-09T10:55:26.572Z,14.70
2023-02-09T10:58:16.896Z,15.40
2023-02-09T11:01:12.534Z,15.60
2023-02-09T11:04:21.475Z,14.83
2023-02-09T11:07:18.298Z,15.83
2023-02-09T11:10:12.772Z,15.00
2023-02-09T11:13:00.060Z,14.45
2023-02-09T11:16:03.908Z,14.30
2023-02-09T11:19:10.397Z,14.33
2023-02-09T11:22:02.769Z,14.20
2023-02-09T11:25:00.405Z,14.10
2023-02-09T11:28:04.679Z,15.07
2023-02-09T11:31:16.387Z,14.60
2023-02-09T11:34:13.949Z,15.20
2023-02-09T11:37:17.776Z,13.50
2023-02-09T11:40:17.381Z,15.20
2023-02-09T11:43:14.633Z,15.10
2023-02-09T11:46:10.880Z,14.60
2023-02-09T11:49:06.674Z,14.67
2023-02-09T11:51:53.802Z,14.17
2023-02-09T11:54:39.836Z,15.27
2023-02-09T11:57:42.980Z,14.13
2023-02-09T12:00:52.413Z,13.93
2023-02-09T12:03:47.785Z,15.00
2023-02-09T12:06:44.461Z,14.37
2023-02-09T12:09:52.179Z,13.80
2023-02-09T12:12:48.731Z,13.63
2023-02-09T12:15:54.322Z,14.60
2023-02-09T12:18:41.377Z,13.60
2023-02-09T12:21:38.239Z,14.03
2023-02-09T12:24:33.332Z,14.23
2023-02-09T12:27:28.050Z,13.33
2023-02-09T12:30:41.870Z,14.13
2023-02-09T12:33:32.198Z,13.97
2023-02-09T12:36:26.303Z,12.80
2023-02-09T12:39:24.294Z,13.57
2023-02-09T12:42:09.930Z,14.77
2023-02-09T12:44:57.774Z,12.77
2023-02-09T12:47:46.090Z,11.07
2023-02-09T12:50:43.010Z,12.50
2023-02-09T12:53:32.388Z,11.20
2023-02-09T12:56:17.622Z,10.47
2023-02-09T12:59:15.426Z,11.03
2023-02-09T13:02:07.228Z,10.00
2023-02-09T13:05:11.457Z,12.80
2023-02-09T13:08:15.983Z,12.70
2023-02-09T13:11:25.848Z,12.77
2023-02-09T13:14:14.666Z,12.15
2023-02-09T13:17:09.326Z,13.25
2023-02-09T13:20:06.971Z,12.52
2023-02-09T13:23:06.873Z,12.23
2023-02-09T13:26:09.158Z,12.07
2023-02-09T13:29:21.439Z,12.73
2023-02-09T13:32:16.537Z,12.83
2023-02-09T13:37:55.415Z,11.60
2023-02-09T13:40:47.137Z,13.05
2023-02-09T13:43:36.932Z,13.63
2023-02-09T13:46:29.223Z,13.38
2023-02-09T13:49:20.154Z,12.68
2023-02-09T13:52:20.128Z,13.88
2023-02-09T13:55:32.134Z,12.80
2023-02-09T13:58:22.222Z,11.90
2023-02-09T14:01:13.928Z,13.38
2023-02-09T14:04:33.008Z,13.13
2023-02-09T14:07:21.223Z,12.88
2023-02-09T14:10:14.658Z,12.45
2023-02-09T14:13:22.191Z,13.48
2023-02-09T14:16:07.934Z,13.50
2023-02-09T14:19:02.468Z,12.98
2023-02-09T14:21:47.773Z,11.93
2023-02-09T14:24:44.382Z,11.80
2023-02-09T14:27:33.018Z,12.60
2023-02-09T14:30:22.750Z,13.15
2023-02-09T14:33:24.711Z,12.85
2023-02-09T14:36:34.062Z,12.80
2023-02-09T14:39:22.725Z,12.70
2023-02-09T14:42:08.150Z,12.00
2023-02-09T14:45:19.023Z,12.30
2023-02-09T14:48:25.751Z,12.70
2023-02-09T14:51:14.613Z,11.68
2023-02-09T14:54:00.976Z,12.02
2023-02-09T14:56:46.618Z,11.77
2023-02-09T14:59:31.909Z,12.55
2023-02-09T15:02:21.298Z,12.25
2023-02-09T15:05:07.187Z,12.52
2023-02-09T15:08:03.582Z,12.35
2023-02-09T15:11:01.636Z,12.65
2023-02-09T15:13:47.835Z,12.52
2023-02-09T15:16:33.413Z,13.00
2023-02-09T15:19:21.792Z,12.68
2023-02-09T15:22:08.642Z,13.30
2023-02-09T15:24:54.699Z,13.43
2023-02-09T15:27:51.177Z,14.02
2023-02-09T15:30:37.278Z,14.85
2023-02-09T15:33:22.432Z,15.25
2023-02-09T15:36:11.061Z,15.15
2023-02-09T15:38:56.468Z,15.57
2023-02-09T15:42:01.497Z,14.30
2023-02-09T15:45:07.360Z,15.95
2023-02-09T15:47:56.521Z,15.85
2023-02-09T15:50:45.671Z,15.67
2023-02-09T15:53:32.082Z,14.90
2023-02-09T15:56:17.422Z,15.33
2023-02-09T15:59:04.647Z,17.57
2023-02-09T16:01:51.395Z,15.30
2023-02-09T16:04:36.630Z,16.87
2023-02-09T16:07:26.116Z,15.20
2023-02-09T16:10:15.788Z,17.13
2023-02-09T16:13:01.221Z,17.00
2023-02-09T16:15:47.715Z,17.37
2023-02-09T16:18:33.209Z,17.40
2023-02-09T16:21:33.534Z,16.50
2023-02-09T16:24:39.875Z,18.20
2023-02-09T16:27:29.105Z,17.00
2023-02-09T16:30:25.883Z,16.17
2023-02-09T16:33:11.269Z,17.40
2023-02-09T16:36:00.621Z,16.50
2023-02-09T16:38:45.939Z,15.60
2023-02-09T16:41:49.626Z,16.07
2023-02-09T16:44:36.559Z,16.70
2023-02-09T16:47:26.222Z,16.80
2023-02-09T16:50:20.378Z,16.57
2023-02-09T16:53:16.698Z,15.57
2023-02-09T16:56:04.927Z,16.03
2023-02-09T16:58:50.503Z,15.07
2023-02-09T17:01:36.031Z,16.33
2023-02-09T17:04:21.658Z,14.97
2023-02-09T17:07:09.591Z,15.90
2023-02-09T17:09:57.329Z,13.23
2023-02-09T17:12:43.175Z,15.73
2023-02-09T17:15:32.183Z,15.83
2023-02-09T17:18:24.692Z,15.47
2023-02-09T17:21:16.897Z,15.57
2023-02-09T17:24:04.211Z,17.03
2023-02-09T17:26:50.037Z,16.50
2023-02-09T17:29:35.906Z,17.20
2023-02-09T17:32:21.727Z,15.93
2023-02-09T17:35:16.200Z,15.40
2023-02-09T17:38:01.380Z,13.68
2023-02-09T17:40:47.008Z,16.73
2023-02-09T17:43:32.712Z,15.47
2023-02-09T17:46:19.802Z,15.50
2023-02-09T17:49:05.593Z,15.07
2023-02-09T17:51:51.581Z,15.77
2023-02-09T17:54:37.046Z,15.87
2023-02-09T17:57:22.452Z,15.90
2023-02-09T18:00:08.581Z,16.13
2023-02-09T18:02:54.401Z,15.50
2023-02-09T18:05:41.298Z,14.63
2023-02-09T18:08:27.416Z,14.70
2023-02-09T18:11:16.713Z,15.83
2023-02-09T18:14:01.980Z,17.00
2023-02-09T18:16:48.222Z,16.47
2023-02-09T18:19:33.735Z,17.17
2023-02-09T18:22:19.943Z,16.60
2023-02-09T18:25:05.345Z,16.20
2023-02-09T18:27:51.657Z,16.87
2023-02-09T18:30:39.502Z,15.70
2023-02-09T18:33:24.757Z,16.57
2023-02-09T18:36:10.381Z,15.20
2023-02-09T18:38:55.855Z,16.90
2023-02-09T18:41:41.757Z,15.43
2023-02-09T18:44:32.286Z,17.00
2023-02-09T18:47:17.880Z,16.17
2023-02-09T18:50:04.779Z,15.70
2023-02-09T18:52:52.600Z,14.77
2023-02-09T18:55:38.364Z,16.50
2023-02-09T18:58:23.582Z,16.20
2023-02-09T19:01:13.327Z,15.67
2023-02-09T19:03:58.732Z,14.90
2023-02-09T19:06:44.047Z,17.13
2023-02-09T19:09:29.690Z,16.43
2023-02-09T19:12:15.277Z,16.53
2023-02-09T19:15:00.708Z,16.33
2023-02-09T19:17:46.292Z,15.00
2023-02-09T19:20:33.973Z,18.50
2023-02-09T19:23:19.286Z,19.00
2023-02-09T19:26:05.635Z,16.20
2023-02-09T19:28:51.164Z,17.43
2023-02-09T19:31:37.150Z,17.80
2023-02-09T19:34:23.405Z,17.80
2023-02-09T19:37:10.583Z,16.20
2023-02-09T19:40:10.580Z,16.13
2023-02-09T19:42:57.105Z,16.03
2023-02-09T19:45:42.599Z,17.17
2023-02-09T19:48:28.195Z,16.93
2023-02-09T19:51:16.316Z,17.03
2023-02-09T19:54:01.833Z,18.10
2023-02-09T19:56:47.359Z,18.67
2023-02-09T19:59:32.957Z,15.67
2023-02-09T20:02:18.450Z,15.63
2023-02-09T20:05:04.508Z,15.33
2023-02-09T20:07:51.092Z,15.67
2023-02-09T20:10:39.386Z,17.37
2023-02-09T20:13:25.026Z,16.57
2023-02-09T20:16:17.031Z,16.17
2023-02-09T20:19:02.334Z,16.77
2023-02-09T20:21:47.994Z,16.27
2023-02-09T20:24:33.623Z,17.93
2023-02-09T20:27:19.217Z,16.30
2023-02-09T20:30:07.380Z,17.57
2023-02-09T20:32:53.108Z,15.80
2023-02-09T20:35:44.573Z,17.07
2023-02-09T20:38:30.027Z,16.23
2023-02-09T20:41:17.992Z,18.37
2023-02-09T20:44:21.966Z,17.77
2023-02-09T20:47:07.228Z,16.27
2023-02-09T20:49:56.010Z,18.40
2023-02-09T20:52:41.495Z,16.20
2023-02-09T20:55:27.473Z,16.57
2023-02-09T20:58:13.836Z,17.50
2023-02-09T21:00:59.142Z,16.03
2023-02-09T21:03:44.781Z,17.70
2023-02-09T21:06:30.143Z,16.23
2023-02-09T21:09:16.019Z,17.63
2023-02-09T21:12:01.634Z,17.93
2023-02-09T21:14:47.793Z,16.33
2023-02-09T21:17:33.326Z,16.93
2023-02-09T21:20:18.982Z,16.43
2023-02-09T21:23:04.359Z,16.13
2023-02-09T21:25:49.732Z,16.23
2023-02-09T21:28:36.539Z,15.97
2023-02-09T21:31:24.218Z,15.83
2023-02-09T21:34:14.031Z,14.77
2023-02-09T21:36:59.439Z,15.07
2023-02-09T21:39:44.657Z,16.17
2023-02-09T21:42:31.529Z,16.57
2023-02-09T21:45:17.270Z,15.50
2023-02-09T21:48:02.514Z,16.47
2023-02-09T21:50:47.858Z,15.83
2023-02-09T21:53:33.164Z,15.43
2023-02-09T21:56:19.157Z,15.53
2023-02-09T21:59:04.588Z,16.17
2023-02-09T22:01:49.933Z,16.63
2023-02-09T22:04:38.026Z,13.90
2023-02-09T22:07:23.455Z,14.67
2023-02-09T22:10:09.129Z,14.30
2023-02-09T22:12:56.744Z,13.73
2023-02-09T22:15:43.810Z,15.03
2023-02-09T22:18:29.127Z,13.27
2023-02-09T22:21:14.451Z,14.00
2023-02-09T22:23:59.672Z,14.00
2023-02-09T22:26:46.708Z,13.43
2023-02-09T22:29:33.365Z,13.77
2023-02-09T22:32:20.418Z,12.57
2023-02-09T22:35:06.455Z,14.03
2023-02-09T22:37:51.608Z,13.90
2023-02-09T22:40:37.267Z,13.90
2023-02-09T22:43:25.152Z,14.57
2023-02-09T22:46:10.428Z,14.80
2023-02-09T22:48:58.166Z,13.20
2023-02-09T22:51:45.452Z,12.83
2023-02-09T22:54:30.844Z,14.20
2023-02-09T22:57:16.160Z,15.33
2023-02-09T23:00:01.942Z,12.57
2023-02-09T23:02:47.299Z,14.13
2023-02-09T23:05:36.369Z,13.67
2023-02-09T23:08:23.085Z,13.73
2023-02-09T23:11:14.989Z,14.10
2023-02-09T23:14:10.662Z,14.43
2023-02-09T23:16:56.590Z,13.40
2023-02-09T23:19:41.963Z,12.67
2023-02-09T23:22:27.294Z,13.20
2023-02-09T23:25:12.901Z,13.73
2023-02-09T23:27:58.235Z,14.23
2023-02-09T23:30:45.277Z,12.17
2023-02-09T23:33:30.762Z,13.53
2023-02-09T23:36:26.880Z,12.47
2023-02-09T23:39:16.464Z,12.23
2023-02-09T23:42:01.981Z,11.80
2023-02-09T23:44:47.651Z,12.13
2023-02-09T23:47:33.180Z,11.23
2023-02-09T23:50:18.917Z,10.37
2023-02-09T23:53:08.430Z,10.87
2023-02-09T23:55:54.170Z,10.07
2023-02-09T23:58:45.678Z,10.33
